sensor_id;sensor_type;location;lat;lon;timestamp;P1;durP1;ratioP1;P2;durP2;ratioP2
17173;SDS011;8702;48.130;-1.696;2023-01-15T00:01:46;5.77;;;1.93;;
17173;SDS011;8702;48.130;-1.696;2023-01-15T00:04:14;7.67;;;2.07;;
17173;SDS011;8702;48.130;-1.696;2023-01-15T00:06:42;6.60;;;2.37;;
17173;SDS011;8702;48.130;-1.696;2023-01-15T00:09:12;7.40;;;2.10;;
17173;SDS011;8702;48.130;-1.696;2023-01-15T00:11:39;5.90;;;2.10;;
17173;SDS011;8702;48.130;-1.696;2023-01-15T00:14:06;5.63;;;1.87;;
17173;SDS011;8702;48.130;-1.696;2023-01-15T00:16:34;9.50;;;1.97;;
17173;SDS011;8702;48.130;-1.696;2023-01-15T00:19:01;8.30;;;2.40;;
17173;SDS011;8702;48.130;-1.696;2023-01-15T00:21:30;6.80;;;2.27;;
17173;SDS011;8702;48.130;-1.696;2023-01-15T00:23:57;8.90;;;2.30;;
17173;SDS011;8702;48.130;-1.696;2023-01-15T00:26:42;6.40;;;2.20;;
17173;SDS011;8702;48.130;-1.696;2023-01-15T00:29:27;5.40;;;2.20;;
17173;SDS011;8702;48.130;-1.696;2023-01-15T00:31:55;8.23;;;2.60;;
17173;SDS011;8702;48.130;-1.696;2023-01-15T00:34:22;7.53;;;2.17;;
17173;SDS011;8702;48.130;-1.696;2023-01-15T00:36:51;6.57;;;2.20;;
17173;SDS011;8702;48.130;-1.696;2023-01-15T00:39:19;8.83;;;2.23;;
17173;SDS011;8702;48.130;-1.696;2023-01-15T00:41:48;5.93;;;2.27;;
17173;SDS011;8702;48.130;-1.696;2023-01-15T00:44:15;7.87;;;2.90;;
17173;SDS011;8702;48.130;-1.696;2023-01-15T00:46:42;6.50;;;2.13;;
17173;SDS011;8702;48.130;-1.696;2023-01-15T00:49:10;6.43;;;2.10;;
17173;SDS011;8702;48.130;-1.696;2023-01-15T00:51:37;8.00;;;2.37;;
17173;SDS011;8702;48.130;-1.696;2023-01-15T00:54:06;9.30;;;2.80;;
17173;SDS011;8702;48.130;-1.696;2023-01-15T00:56:33;4.37;;;2.03;;
17173;SDS011;8702;48.130;-1.696;2023-01-15T00:59:00;9.37;;;2.20;;
17173;SDS011;8702;48.130;-1.696;2023-01-15T01:01:27;6.67;;;1.93;;
17173;SDS011;8702;48.130;-1.696;2023-01-15T01:03:55;9.17;;;2.23;;
17173;SDS011;8702;48.130;-1.696;2023-01-15T01:06:22;7.57;;;2.10;;
17173;SDS011;8702;48.130;-1.696;2023-01-15T01:08:49;6.23;;;2.07;;
17173;SDS011;8702;48.130;-1.696;2023-01-15T01:11:19;8.77;;;2.30;;
17173;SDS011;8702;48.130;-1.696;2023-01-15T01:13:48;6.00;;;2.23;;
17173;SDS011;8702;48.130;-1.696;2023-01-15T01:16:25;9.07;;;1.90;;
17173;SDS011;8702;48.130;-1.696;2023-01-15T01:18:54;5.20;;;2.10;;
17173;SDS011;8702;48.130;-1.696;2023-01-15T01:21:22;5.13;;;1.70;;
17173;SDS011;8702;48.130;-1.696;2023-01-15T01:23:49;4.73;;;1.90;;
17173;SDS011;8702;48.130;-1.696;2023-01-15T01:26:17;7.63;;;2.27;;
17173;SDS011;8702;48.130;-1.696;2023-01-15T01:28:47;8.43;;;2.47;;
17173;SDS011;8702;48.130;-1.696;2023-01-15T01:31:14;6.17;;;2.20;;
17173;SDS011;8702;48.130;-1.696;2023-01-15T01:33:41;5.47;;;1.77;;
17173;SDS011;8702;48.130;-1.696;2023-01-15T01:36:09;8.23;;;1.80;;
17173;SDS011;8702;48.130;-1.696;2023-01-15T01:38:36;4.70;;;1.80;;
17173;SDS011;8702;48.130;-1.696;2023-01-15T01:41:04;6.67;;;2.17;;
17173;SDS011;8702;48.130;-1.696;2023-01-15T01:46:14;4.93;;;1.60;;
17173;SDS011;8702;48.130;-1.696;2023-01-15T01:48:41;5.33;;;2.03;;
17173;SDS011;8702;48.130;-1.696;2023-01-15T01:51:09;2.57;;;1.57;;
17173;SDS011;8702;48.130;-1.696;2023-01-15T01:53:36;10.13;;;1.80;;
17173;SDS011;8702;48.130;-1.696;2023-01-15T01:56:06;5.03;;;1.63;;
17173;SDS011;8702;48.130;-1.696;2023-01-15T01:58:33;7.87;;;1.57;;
17173;SDS011;8702;48.130;-1.696;2023-01-15T02:01:01;3.37;;;1.50;;
17173;SDS011;8702;48.130;-1.696;2023-01-15T02:03:31;4.43;;;1.50;;
17173;SDS011;8702;48.130;-1.696;2023-01-15T02:05:59;4.40;;;1.60;;
17173;SDS011;8702;48.130;-1.696;2023-01-15T02:08:27;7.13;;;1.90;;
17173;SDS011;8702;48.130;-1.696;2023-01-15T02:10:56;4.03;;;1.77;;
17173;SDS011;8702;48.130;-1.696;2023-01-15T02:13:24;6.70;;;2.03;;
17173;SDS011;8702;48.130;-1.696;2023-01-15T02:15:55;5.77;;;1.57;;
17173;SDS011;8702;48.130;-1.696;2023-01-15T02:18:25;7.43;;;1.57;;
17173;SDS011;8702;48.130;-1.696;2023-01-15T02:20:57;5.73;;;1.70;;
17173;SDS011;8702;48.130;-1.696;2023-01-15T02:23:30;4.40;;;1.47;;
17173;SDS011;8702;48.130;-1.696;2023-01-15T02:28:47;4.57;;;1.43;;
17173;SDS011;8702;48.130;-1.696;2023-01-15T02:31:16;6.27;;;1.80;;
17173;SDS011;8702;48.130;-1.696;2023-01-15T02:33:46;5.27;;;1.93;;
17173;SDS011;8702;48.130;-1.696;2023-01-15T02:36:16;4.60;;;1.57;;
17173;SDS011;8702;48.130;-1.696;2023-01-15T02:38:47;7.70;;;2.03;;
17173;SDS011;8702;48.130;-1.696;2023-01-15T02:41:15;4.93;;;1.67;;
17173;SDS011;8702;48.130;-1.696;2023-01-15T02:43:45;5.10;;;1.50;;
17173;SDS011;8702;48.130;-1.696;2023-01-15T02:46:14;5.83;;;1.87;;
17173;SDS011;8702;48.130;-1.696;2023-01-15T02:48:42;5.03;;;1.80;;
17173;SDS011;8702;48.130;-1.696;2023-01-15T02:51:11;7.40;;;1.93;;
17173;SDS011;8702;48.130;-1.696;2023-01-15T02:53:40;5.23;;;1.77;;
17173;SDS011;8702;48.130;-1.696;2023-01-15T02:56:09;5.73;;;1.87;;
17173;SDS011;8702;48.130;-1.696;2023-01-15T02:58:38;5.23;;;1.97;;
17173;SDS011;8702;48.130;-1.696;2023-01-15T03:01:08;7.20;;;1.80;;
17173;SDS011;8702;48.130;-1.696;2023-01-15T03:03:38;5.87;;;1.97;;
17173;SDS011;8702;48.130;-1.696;2023-01-15T03:06:09;6.87;;;1.87;;
17173;SDS011;8702;48.130;-1.696;2023-01-15T03:08:37;11.20;;;2.30;;
17173;SDS011;8702;48.130;-1.696;2023-01-15T03:11:06;7.57;;;2.20;;
17173;SDS011;8702;48.130;-1.696;2023-01-15T03:13:38;6.17;;;2.03;;
17173;SDS011;8702;48.130;-1.696;2023-01-15T03:16:12;8.80;;;2.30;;
17173;SDS011;8702;48.130;-1.696;2023-01-15T03:19:08;9.93;;;2.57;;
17173;SDS011;8702;48.130;-1.696;2023-01-15T03:21:40;7.70;;;2.07;;
17173;SDS011;8702;48.130;-1.696;2023-01-15T03:24:10;8.77;;;2.10;;
17173;SDS011;8702;48.130;-1.696;2023-01-15T03:26:39;5.90;;;1.93;;
17173;SDS011;8702;48.130;-1.696;2023-01-15T03:29:06;5.40;;;2.00;;
17173;SDS011;8702;48.130;-1.696;2023-01-15T03:31:35;7.10;;;1.73;;
17173;SDS011;8702;48.130;-1.696;2023-01-15T03:34:02;6.13;;;1.90;;
17173;SDS011;8702;48.130;-1.696;2023-01-15T03:36:32;6.10;;;1.93;;
17173;SDS011;8702;48.130;-1.696;2023-01-15T03:39:02;6.60;;;1.93;;
17173;SDS011;8702;48.130;-1.696;2023-01-15T03:41:32;5.43;;;1.50;;
17173;SDS011;8702;48.130;-1.696;2023-01-15T03:44:10;4.37;;;1.83;;
17173;SDS011;8702;48.130;-1.696;2023-01-15T03:46:51;5.10;;;1.53;;
17173;SDS011;8702;48.130;-1.696;2023-01-15T03:49:30;4.07;;;1.50;;
17173;SDS011;8702;48.130;-1.696;2023-01-15T03:52:12;5.17;;;1.60;;
17173;SDS011;8702;48.130;-1.696;2023-01-15T03:54:50;3.73;;;1.50;;
17173;SDS011;8702;48.130;-1.696;2023-01-15T03:57:26;5.60;;;1.77;;
17173;SDS011;8702;48.130;-1.696;2023-01-15T03:59:55;6.70;;;2.10;;
17173;SDS011;8702;48.130;-1.696;2023-01-15T04:02:26;8.63;;;2.27;;
17173;SDS011;8702;48.130;-1.696;2023-01-15T04:04:57;7.13;;;2.40;;
17173;SDS011;8702;48.130;-1.696;2023-01-15T04:07:26;5.50;;;2.07;;
17173;SDS011;8702;48.130;-1.696;2023-01-15T04:09:54;4.73;;;1.90;;
17173;SDS011;8702;48.130;-1.696;2023-01-15T04:12:22;4.87;;;2.37;;
17173;SDS011;8702;48.130;-1.696;2023-01-15T04:14:52;7.77;;;2.07;;
17173;SDS011;8702;48.130;-1.696;2023-01-15T04:17:20;11.90;;;2.63;;
17173;SDS011;8702;48.130;-1.696;2023-01-15T04:19:49;6.97;;;1.93;;
17173;SDS011;8702;48.130;-1.696;2023-01-15T04:22:19;8.63;;;2.47;;
17173;SDS011;8702;48.130;-1.696;2023-01-15T04:24:47;6.60;;;1.87;;
17173;SDS011;8702;48.130;-1.696;2023-01-15T04:27:15;7.93;;;2.30;;
17173;SDS011;8702;48.130;-1.696;2023-01-15T04:29:42;5.23;;;2.00;;
17173;SDS011;8702;48.130;-1.696;2023-01-15T04:32:09;7.63;;;2.50;;
17173;SDS011;8702;48.130;-1.696;2023-01-15T04:34:36;8.30;;;2.50;;
17173;SDS011;8702;48.130;-1.696;2023-01-15T04:37:03;7.70;;;2.30;;
17173;SDS011;8702;48.130;-1.696;2023-01-15T04:39:31;7.40;;;2.10;;
17173;SDS011;8702;48.130;-1.696;2023-01-15T04:41:59;7.00;;;2.50;;
17173;SDS011;8702;48.130;-1.696;2023-01-15T04:44:44;5.73;;;2.10;;
17173;SDS011;8702;48.130;-1.696;2023-01-15T04:47:11;4.97;;;1.73;;
17173;SDS011;8702;48.130;-1.696;2023-01-15T04:49:38;6.67;;;2.20;;
17173;SDS011;8702;48.130;-1.696;2023-01-15T04:52:05;7.33;;;2.00;;
17173;SDS011;8702;48.130;-1.696;2023-01-15T04:54:32;7.23;;;2.10;;
17173;SDS011;8702;48.130;-1.696;2023-01-15T04:57:00;7.37;;;1.93;;
17173;SDS011;8702;48.130;-1.696;2023-01-15T04:59:27;5.97;;;1.90;;
17173;SDS011;8702;48.130;-1.696;2023-01-15T05:01:54;6.20;;;2.03;;
17173;SDS011;8702;48.130;-1.696;2023-01-15T05:04:21;5.70;;;1.77;;
17173;SDS011;8702;48.130;-1.696;2023-01-15T05:06:48;4.93;;;1.40;;
17173;SDS011;8702;48.130;-1.696;2023-01-15T05:09:15;9.60;;;2.10;;
17173;SDS011;8702;48.130;-1.696;2023-01-15T05:11:42;9.30;;;2.20;;
17173;SDS011;8702;48.130;-1.696;2023-01-15T05:14:11;10.37;;;2.23;;
17173;SDS011;8702;48.130;-1.696;2023-01-15T05:16:38;7.37;;;2.67;;
17173;SDS011;8702;48.130;-1.696;2023-01-15T05:19:05;8.57;;;2.23;;
17173;SDS011;8702;48.130;-1.696;2023-01-15T05:21:33;9.87;;;2.47;;
17173;SDS011;8702;48.130;-1.696;2023-01-15T05:24:02;9.00;;;2.37;;
17173;SDS011;8702;48.130;-1.696;2023-01-15T05:26:30;8.30;;;1.80;;
17173;SDS011;8702;48.130;-1.696;2023-01-15T05:28:58;10.70;;;2.13;;
17173;SDS011;8702;48.130;-1.696;2023-01-15T05:31:28;11.27;;;2.20;;
17173;SDS011;8702;48.130;-1.696;2023-01-15T05:33:55;8.13;;;2.10;;
17173;SDS011;8702;48.130;-1.696;2023-01-15T05:36:23;9.43;;;2.13;;
17173;SDS011;8702;48.130;-1.696;2023-01-15T05:38:52;6.63;;;2.27;;
17173;SDS011;8702;48.130;-1.696;2023-01-15T05:41:19;7.27;;;2.30;;
17173;SDS011;8702;48.130;-1.696;2023-01-15T05:44:04;8.83;;;1.87;;
17173;SDS011;8702;48.130;-1.696;2023-01-15T05:46:34;8.57;;;2.60;;
17173;SDS011;8702;48.130;-1.696;2023-01-15T05:49:03;9.00;;;2.23;;
17173;SDS011;8702;48.130;-1.696;2023-01-15T05:51:32;6.60;;;2.27;;
17173;SDS011;8702;48.130;-1.696;2023-01-15T05:53:59;9.43;;;2.37;;
17173;SDS011;8702;48.130;-1.696;2023-01-15T05:56:27;10.43;;;2.40;;
17173;SDS011;8702;48.130;-1.696;2023-01-15T05:58:54;8.27;;;2.43;;
17173;SDS011;8702;48.130;-1.696;2023-01-15T06:01:21;9.73;;;2.47;;
17173;SDS011;8702;48.130;-1.696;2023-01-15T06:03:49;8.30;;;2.30;;
17173;SDS011;8702;48.130;-1.696;2023-01-15T06:06:17;5.87;;;2.13;;
17173;SDS011;8702;48.130;-1.696;2023-01-15T06:08:44;11.50;;;2.70;;
17173;SDS011;8702;48.130;-1.696;2023-01-15T06:11:12;8.40;;;2.83;;
17173;SDS011;8702;48.130;-1.696;2023-01-15T06:13:39;7.00;;;2.23;;
17173;SDS011;8702;48.130;-1.696;2023-01-15T06:16:07;6.80;;;1.87;;
17173;SDS011;8702;48.130;-1.696;2023-01-15T06:18:35;11.33;;;2.37;;
17173;SDS011;8702;48.130;-1.696;2023-01-15T06:21:04;8.73;;;2.40;;
17173;SDS011;8702;48.130;-1.696;2023-01-15T06:23:32;9.80;;;2.20;;
17173;SDS011;8702;48.130;-1.696;2023-01-15T06:26:00;5.40;;;1.73;;
17173;SDS011;8702;48.130;-1.696;2023-01-15T06:28:28;8.00;;;2.47;;
17173;SDS011;8702;48.130;-1.696;2023-01-15T06:30:55;6.93;;;2.27;;
17173;SDS011;8702;48.130;-1.696;2023-01-15T06:33:22;6.37;;;2.07;;
17173;SDS011;8702;48.130;-1.696;2023-01-15T06:35:49;8.07;;;2.23;;
17173;SDS011;8702;48.130;-1.696;2023-01-15T06:38:18;6.17;;;2.17;;
17173;SDS011;8702;48.130;-1.696;2023-01-15T06:40:47;6.80;;;1.97;;
17173;SDS011;8702;48.130;-1.696;2023-01-15T06:43:14;6.63;;;2.07;;
17173;SDS011;8702;48.130;-1.696;2023-01-15T06:45:58;8.33;;;2.70;;
17173;SDS011;8702;48.130;-1.696;2023-01-15T06:48:44;10.43;;;2.93;;
17173;SDS011;8702;48.130;-1.696;2023-01-15T06:51:12;11.20;;;2.43;;
17173;SDS011;8702;48.130;-1.696;2023-01-15T06:53:45;7.20;;;2.47;;
17173;SDS011;8702;48.130;-1.696;2023-01-15T06:56:12;5.70;;;2.00;;
17173;SDS011;8702;48.130;-1.696;2023-01-15T06:58:39;7.57;;;2.67;;
17173;SDS011;8702;48.130;-1.696;2023-01-15T07:01:07;8.60;;;2.53;;
17173;SDS011;8702;48.130;-1.696;2023-01-15T07:03:35;8.13;;;2.07;;
17173;SDS011;8702;48.130;-1.696;2023-01-15T07:06:05;8.70;;;2.53;;
17173;SDS011;8702;48.130;-1.696;2023-01-15T07:08:33;6.90;;;2.73;;
17173;SDS011;8702;48.130;-1.696;2023-01-15T07:11:05;10.37;;;3.00;;
17173;SDS011;8702;48.130;-1.696;2023-01-15T07:13:32;8.80;;;2.10;;
17173;SDS011;8702;48.130;-1.696;2023-01-15T07:16:00;11.47;;;2.50;;
17173;SDS011;8702;48.130;-1.696;2023-01-15T07:18:28;7.87;;;2.50;;
17173;SDS011;8702;48.130;-1.696;2023-01-15T07:20:55;6.00;;;2.03;;
17173;SDS011;8702;48.130;-1.696;2023-01-15T07:23:23;7.17;;;2.07;;
17173;SDS011;8702;48.130;-1.696;2023-01-15T07:25:51;7.97;;;2.67;;
17173;SDS011;8702;48.130;-1.696;2023-01-15T07:28:20;8.10;;;2.40;;
17173;SDS011;8702;48.130;-1.696;2023-01-15T07:30:48;8.43;;;2.53;;
17173;SDS011;8702;48.130;-1.696;2023-01-15T07:33:15;9.03;;;2.60;;
17173;SDS011;8702;48.130;-1.696;2023-01-15T07:35:42;9.67;;;2.73;;
17173;SDS011;8702;48.130;-1.696;2023-01-15T07:38:09;13.47;;;2.77;;
17173;SDS011;8702;48.130;-1.696;2023-01-15T07:40:36;11.17;;;3.00;;
17173;SDS011;8702;48.130;-1.696;2023-01-15T07:43:04;9.17;;;2.77;;
17173;SDS011;8702;48.130;-1.696;2023-01-15T07:45:50;11.37;;;2.90;;
17173;SDS011;8702;48.130;-1.696;2023-01-15T07:48:35;8.87;;;2.77;;
17173;SDS011;8702;48.130;-1.696;2023-01-15T07:51:34;13.27;;;3.07;;
17173;SDS011;8702;48.130;-1.696;2023-01-15T07:54:01;11.03;;;3.23;;
17173;SDS011;8702;48.130;-1.696;2023-01-15T07:56:29;14.07;;;2.87;;
17173;SDS011;8702;48.130;-1.696;2023-01-15T07:58:56;9.77;;;3.33;;
17173;SDS011;8702;48.130;-1.696;2023-01-15T08:01:25;12.07;;;3.07;;
17173;SDS011;8702;48.130;-1.696;2023-01-15T08:03:52;15.37;;;3.33;;
17173;SDS011;8702;48.130;-1.696;2023-01-15T08:06:19;12.40;;;2.93;;
17173;SDS011;8702;48.130;-1.696;2023-01-15T08:08:46;9.00;;;2.90;;
17173;SDS011;8702;48.130;-1.696;2023-01-15T08:11:13;11.23;;;2.77;;
17173;SDS011;8702;48.130;-1.696;2023-01-15T08:13:58;12.83;;;3.40;;
17173;SDS011;8702;48.130;-1.696;2023-01-15T08:16:44;10.57;;;2.73;;
17173;SDS011;8702;48.130;-1.696;2023-01-15T08:19:11;11.67;;;3.00;;
17173;SDS011;8702;48.130;-1.696;2023-01-15T08:21:38;11.50;;;3.17;;
17173;SDS011;8702;48.130;-1.696;2023-01-15T08:24:05;12.67;;;2.87;;
17173;SDS011;8702;48.130;-1.696;2023-01-15T08:26:33;11.13;;;3.23;;
17173;SDS011;8702;48.130;-1.696;2023-01-15T08:29:00;13.80;;;3.50;;
17173;SDS011;8702;48.130;-1.696;2023-01-15T08:31:27;11.20;;;2.70;;
17173;SDS011;8702;48.130;-1.696;2023-01-15T08:33:56;12.17;;;3.27;;
17173;SDS011;8702;48.130;-1.696;2023-01-15T08:36:23;10.37;;;2.80;;
17173;SDS011;8702;48.130;-1.696;2023-01-15T08:38:50;10.57;;;2.97;;
17173;SDS011;8702;48.130;-1.696;2023-01-15T08:41:17;10.53;;;3.07;;
17173;SDS011;8702;48.130;-1.696;2023-01-15T08:43:44;11.60;;;2.77;;
17173;SDS011;8702;48.130;-1.696;2023-01-15T08:46:12;13.17;;;3.10;;
17173;SDS011;8702;48.130;-1.696;2023-01-15T08:48:39;14.07;;;3.30;;
17173;SDS011;8702;48.130;-1.696;2023-01-15T08:51:08;9.97;;;2.87;;
17173;SDS011;8702;48.130;-1.696;2023-01-15T08:53:35;10.53;;;3.27;;
17173;SDS011;8702;48.130;-1.696;2023-01-15T08:56:03;13.07;;;3.50;;
17173;SDS011;8702;48.130;-1.696;2023-01-15T08:58:30;8.93;;;2.80;;
17173;SDS011;8702;48.130;-1.696;2023-01-15T09:01:02;11.53;;;3.20;;
17173;SDS011;8702;48.130;-1.696;2023-01-15T09:03:30;12.17;;;3.10;;
17173;SDS011;8702;48.130;-1.696;2023-01-15T09:05:57;14.77;;;4.10;;
17173;SDS011;8702;48.130;-1.696;2023-01-15T09:08:26;11.23;;;3.03;;
17173;SDS011;8702;48.130;-1.696;2023-01-15T09:10:55;8.47;;;3.10;;
17173;SDS011;8702;48.130;-1.696;2023-01-15T09:13:23;9.57;;;3.20;;
17173;SDS011;8702;48.130;-1.696;2023-01-15T09:15:50;10.87;;;3.33;;
17173;SDS011;8702;48.130;-1.696;2023-01-15T09:18:17;11.47;;;3.13;;
17173;SDS011;8702;48.130;-1.696;2023-01-15T09:20:44;9.53;;;3.30;;
17173;SDS011;8702;48.130;-1.696;2023-01-15T09:23:12;8.13;;;2.97;;
17173;SDS011;8702;48.130;-1.696;2023-01-15T09:25:40;10.70;;;3.03;;
17173;SDS011;8702;48.130;-1.696;2023-01-15T09:28:16;13.57;;;3.30;;
17173;SDS011;8702;48.130;-1.696;2023-01-15T09:30:43;8.40;;;2.63;;
17173;SDS011;8702;48.130;-1.696;2023-01-15T09:33:10;11.27;;;2.30;;
17173;SDS011;8702;48.130;-1.696;2023-01-15T09:35:38;8.60;;;2.50;;
17173;SDS011;8702;48.130;-1.696;2023-01-15T09:38:05;10.07;;;2.97;;
17173;SDS011;8702;48.130;-1.696;2023-01-15T09:40:39;10.60;;;2.43;;
17173;SDS011;8702;48.130;-1.696;2023-01-15T09:43:13;8.03;;;2.50;;
17173;SDS011;8702;48.130;-1.696;2023-01-15T09:45:44;8.30;;;3.00;;
17173;SDS011;8702;48.130;-1.696;2023-01-15T09:48:24;10.00;;;2.87;;
17173;SDS011;8702;48.130;-1.696;2023-01-15T09:50:58;10.27;;;2.60;;
17173;SDS011;8702;48.130;-1.696;2023-01-15T09:53:36;10.60;;;2.57;;
17173;SDS011;8702;48.130;-1.696;2023-01-15T09:56:04;7.17;;;2.50;;
17173;SDS011;8702;48.130;-1.696;2023-01-15T09:58:34;7.80;;;2.73;;
17173;SDS011;8702;48.130;-1.696;2023-01-15T10:01:01;8.30;;;2.50;;
17173;SDS011;8702;48.130;-1.696;2023-01-15T10:03:30;10.77;;;2.80;;
17173;SDS011;8702;48.130;-1.696;2023-01-15T10:06:02;8.43;;;2.80;;
17173;SDS011;8702;48.130;-1.696;2023-01-15T10:08:32;14.43;;;2.77;;
17173;SDS011;8702;48.130;-1.696;2023-01-15T10:11:01;12.00;;;3.43;;
17173;SDS011;8702;48.130;-1.696;2023-01-15T10:13:31;9.27;;;2.80;;
17173;SDS011;8702;48.130;-1.696;2023-01-15T10:16:03;9.67;;;2.77;;
17173;SDS011;8702;48.130;-1.696;2023-01-15T10:18:31;7.10;;;2.47;;
17173;SDS011;8702;48.130;-1.696;2023-01-15T10:21:01;7.90;;;2.50;;
17173;SDS011;8702;48.130;-1.696;2023-01-15T10:23:39;6.57;;;2.60;;
17173;SDS011;8702;48.130;-1.696;2023-01-15T10:26:19;8.57;;;2.30;;
17173;SDS011;8702;48.130;-1.696;2023-01-15T10:28:59;9.13;;;2.20;;
17173;SDS011;8702;48.130;-1.696;2023-01-15T10:31:38;7.40;;;2.33;;
17173;SDS011;8702;48.130;-1.696;2023-01-15T10:37:19;7.60;;;2.10;;
17173;SDS011;8702;48.130;-1.696;2023-01-15T10:40:02;7.80;;;2.13;;
17173;SDS011;8702;48.130;-1.696;2023-01-15T10:42:40;10.03;;;2.63;;
17173;SDS011;8702;48.130;-1.696;2023-01-15T10:45:14;7.80;;;2.33;;
17173;SDS011;8702;48.130;-1.696;2023-01-15T10:47:47;7.43;;;2.37;;
17173;SDS011;8702;48.130;-1.696;2023-01-15T10:50:19;7.97;;;2.43;;
17173;SDS011;8702;48.130;-1.696;2023-01-15T10:52:48;7.97;;;2.37;;
17173;SDS011;8702;48.130;-1.696;2023-01-15T10:55:23;6.57;;;2.63;;
17173;SDS011;8702;48.130;-1.696;2023-01-15T10:57:56;11.83;;;3.13;;
17173;SDS011;8702;48.130;-1.696;2023-01-15T11:00:28;8.23;;;2.13;;
17173;SDS011;8702;48.130;-1.696;2023-01-15T11:02:59;8.23;;;2.50;;
17173;SDS011;8702;48.130;-1.696;2023-01-15T11:05:28;8.57;;;2.60;;
17173;SDS011;8702;48.130;-1.696;2023-01-15T11:07:57;11.60;;;3.10;;
17173;SDS011;8702;48.130;-1.696;2023-01-15T11:10:25;8.43;;;2.53;;
17173;SDS011;8702;48.130;-1.696;2023-01-15T11:12:52;7.63;;;2.60;;
17173;SDS011;8702;48.130;-1.696;2023-01-15T11:15:38;7.60;;;2.33;;
17173;SDS011;8702;48.130;-1.696;2023-01-15T11:18:29;6.37;;;2.40;;
17173;SDS011;8702;48.130;-1.696;2023-01-15T11:21:17;8.30;;;2.60;;
17173;SDS011;8702;48.130;-1.696;2023-01-15T11:23:45;7.33;;;2.60;;
17173;SDS011;8702;48.130;-1.696;2023-01-15T11:26:15;9.47;;;2.50;;
17173;SDS011;8702;48.130;-1.696;2023-01-15T11:28:45;8.93;;;2.60;;
17173;SDS011;8702;48.130;-1.696;2023-01-15T11:31:13;9.70;;;2.57;;
17173;SDS011;8702;48.130;-1.696;2023-01-15T11:33:44;13.83;;;2.63;;
17173;SDS011;8702;48.130;-1.696;2023-01-15T11:36:23;8.63;;;2.73;;
17173;SDS011;8702;48.130;-1.696;2023-01-15T11:38:51;7.40;;;2.77;;
17173;SDS011;8702;48.130;-1.696;2023-01-15T11:41:20;8.80;;;2.67;;
17173;SDS011;8702;48.130;-1.696;2023-01-15T11:43:55;6.70;;;2.23;;
17173;SDS011;8702;48.130;-1.696;2023-01-15T11:46:40;6.70;;;2.53;;
17173;SDS011;8702;48.130;-1.696;2023-01-15T11:49:26;10.17;;;3.40;;
17173;SDS011;8702;48.130;-1.696;2023-01-15T11:52:17;7.87;;;2.43;;
17173;SDS011;8702;48.130;-1.696;2023-01-15T11:54:47;14.90;;;3.77;;
17173;SDS011;8702;48.130;-1.696;2023-01-15T11:57:24;20.13;;;3.33;;
17173;SDS011;8702;48.130;-1.696;2023-01-15T11:59:53;9.93;;;2.50;;
17173;SDS011;8702;48.130;-1.696;2023-01-15T12:02:23;7.77;;;2.37;;
17173;SDS011;8702;48.130;-1.696;2023-01-15T12:04:55;8.83;;;2.60;;
17173;SDS011;8702;48.130;-1.696;2023-01-15T12:07:24;10.60;;;3.07;;
17173;SDS011;8702;48.130;-1.696;2023-01-15T12:12:42;10.83;;;2.73;;
17173;SDS011;8702;48.130;-1.696;2023-01-15T12:15:15;8.27;;;2.73;;
17173;SDS011;8702;48.130;-1.696;2023-01-15T12:17:54;9.00;;;2.57;;
17173;SDS011;8702;48.130;-1.696;2023-01-15T12:20:25;6.20;;;2.30;;
17173;SDS011;8702;48.130;-1.696;2023-01-15T12:23:07;7.60;;;2.40;;
17173;SDS011;8702;48.130;-1.696;2023-01-15T12:25:43;6.03;;;2.03;;
17173;SDS011;8702;48.130;-1.696;2023-01-15T12:28:19;3.90;;;1.70;;
17173;SDS011;8702;48.130;-1.696;2023-01-15T12:30:53;4.87;;;1.93;;
17173;SDS011;8702;48.130;-1.696;2023-01-15T12:33:27;6.03;;;1.83;;
17173;SDS011;8702;48.130;-1.696;2023-01-15T12:36:07;4.97;;;1.77;;
17173;SDS011;8702;48.130;-1.696;2023-01-15T12:38:44;5.70;;;1.63;;
17173;SDS011;8702;48.130;-1.696;2023-01-15T12:41:15;5.27;;;1.87;;
17173;SDS011;8702;48.130;-1.696;2023-01-15T12:43:47;3.20;;;1.63;;
17173;SDS011;8702;48.130;-1.696;2023-01-15T12:46:34;4.20;;;1.60;;
17173;SDS011;8702;48.130;-1.696;2023-01-15T12:49:08;7.10;;;2.03;;
17173;SDS011;8702;48.130;-1.696;2023-01-15T12:51:48;5.90;;;1.90;;
17173;SDS011;8702;48.130;-1.696;2023-01-15T12:54:20;4.67;;;2.00;;
17173;SDS011;8702;48.130;-1.696;2023-01-15T12:56:52;5.63;;;1.80;;
17173;SDS011;8702;48.130;-1.696;2023-01-15T12:59:24;6.13;;;2.10;;
17173;SDS011;8702;48.130;-1.696;2023-01-15T13:01:58;7.00;;;2.00;;
17173;SDS011;8702;48.130;-1.696;2023-01-15T13:04:41;4.83;;;1.97;;
17173;SDS011;8702;48.130;-1.696;2023-01-15T13:07:13;9.40;;;2.30;;
17173;SDS011;8702;48.130;-1.696;2023-01-15T13:09:48;6.83;;;2.27;;
17173;SDS011;8702;48.130;-1.696;2023-01-15T13:12:21;6.60;;;2.10;;
17173;SDS011;8702;48.130;-1.696;2023-01-15T13:14:48;10.33;;;2.07;;
17173;SDS011;8702;48.130;-1.696;2023-01-15T13:17:17;5.83;;;2.13;;
17173;SDS011;8702;48.130;-1.696;2023-01-15T13:19:58;7.50;;;2.10;;
17173;SDS011;8702;48.130;-1.696;2023-01-15T13:22:41;7.07;;;2.00;;
17173;SDS011;8702;48.130;-1.696;2023-01-15T13:25:28;7.10;;;2.43;;
17173;SDS011;8702;48.130;-1.696;2023-01-15T13:28:12;7.87;;;2.60;;
17173;SDS011;8702;48.130;-1.696;2023-01-15T13:30:52;5.77;;;2.13;;
17173;SDS011;8702;48.130;-1.696;2023-01-15T13:33:28;11.00;;;2.83;;
17173;SDS011;8702;48.130;-1.696;2023-01-15T13:36:02;9.27;;;2.53;;
17173;SDS011;8702;48.130;-1.696;2023-01-15T13:38:38;4.57;;;1.93;;
17173;SDS011;8702;48.130;-1.696;2023-01-15T13:41:09;7.83;;;2.13;;
17173;SDS011;8702;48.130;-1.696;2023-01-15T13:44:01;6.57;;;2.07;;
17173;SDS011;8702;48.130;-1.696;2023-01-15T13:46:28;5.37;;;1.97;;
17173;SDS011;8702;48.130;-1.696;2023-01-15T13:48:56;7.30;;;2.13;;
17173;SDS011;8702;48.130;-1.696;2023-01-15T13:51:24;7.50;;;2.40;;
17173;SDS011;8702;48.130;-1.696;2023-01-15T13:53:56;5.53;;;2.13;;
17173;SDS011;8702;48.130;-1.696;2023-01-15T13:56:25;4.17;;;1.93;;
17173;SDS011;8702;48.130;-1.696;2023-01-15T13:58:54;5.20;;;2.10;;
17173;SDS011;8702;48.130;-1.696;2023-01-15T14:01:24;6.70;;;2.20;;
17173;SDS011;8702;48.130;-1.696;2023-01-15T14:04:00;6.63;;;2.00;;
17173;SDS011;8702;48.130;-1.696;2023-01-15T14:06:37;5.37;;;2.43;;
17173;SDS011;8702;48.130;-1.696;2023-01-15T14:11:35;7.47;;;2.33;;
17173;SDS011;8702;48.130;-1.696;2023-01-15T14:17:19;8.60;;;2.77;;
17173;SDS011;8702;48.130;-1.696;2023-01-15T14:23:18;7.97;;;2.40;;
17173;SDS011;8702;48.130;-1.696;2023-01-15T14:26:01;8.50;;;2.77;;
17173;SDS011;8702;48.130;-1.696;2023-01-15T14:28:42;11.17;;;2.97;;
17173;SDS011;8702;48.130;-1.696;2023-01-15T14:31:25;9.37;;;3.00;;
17173;SDS011;8702;48.130;-1.696;2023-01-15T14:34:13;11.60;;;2.77;;
17173;SDS011;8702;48.130;-1.696;2023-01-15T14:36:49;5.80;;;2.17;;
17173;SDS011;8702;48.130;-1.696;2023-01-15T14:39:23;9.90;;;2.93;;
17173;SDS011;8702;48.130;-1.696;2023-01-15T14:41:57;8.27;;;2.90;;
17173;SDS011;8702;48.130;-1.696;2023-01-15T14:44:46;10.57;;;2.70;;
17173;SDS011;8702;48.130;-1.696;2023-01-15T14:47:25;10.70;;;2.83;;
17173;SDS011;8702;48.130;-1.696;2023-01-15T14:55:57;6.37;;;2.57;;
17173;SDS011;8702;48.130;-1.696;2023-01-15T14:58:35;9.43;;;2.60;;
17173;SDS011;8702;48.130;-1.696;2023-01-15T15:01:10;7.30;;;2.57;;
17173;SDS011;8702;48.130;-1.696;2023-01-15T15:03:44;6.57;;;2.10;;
17173;SDS011;8702;48.130;-1.696;2023-01-15T15:06:16;8.20;;;2.77;;
17173;SDS011;8702;48.130;-1.696;2023-01-15T15:08:43;8.20;;;2.60;;
17173;SDS011;8702;48.130;-1.696;2023-01-15T15:11:14;9.30;;;2.77;;
17173;SDS011;8702;48.130;-1.696;2023-01-15T15:14:07;7.13;;;2.97;;
17173;SDS011;8702;48.130;-1.696;2023-01-15T15:16:39;7.17;;;2.10;;
17173;SDS011;8702;48.130;-1.696;2023-01-15T15:19:12;5.97;;;2.00;;
17173;SDS011;8702;48.130;-1.696;2023-01-15T15:21:44;6.07;;;2.27;;
17173;SDS011;8702;48.130;-1.696;2023-01-15T15:24:14;11.97;;;2.33;;
17173;SDS011;8702;48.130;-1.696;2023-01-15T15:26:46;6.70;;;2.53;;
17173;SDS011;8702;48.130;-1.696;2023-01-15T15:29:15;7.90;;;2.77;;
17173;SDS011;8702;48.130;-1.696;2023-01-15T15:31:44;10.53;;;3.30;;
17173;SDS011;8702;48.130;-1.696;2023-01-15T15:34:14;7.67;;;2.63;;
17173;SDS011;8702;48.130;-1.696;2023-01-15T15:36:45;15.40;;;3.67;;